createdAt,value
2023-03-06T00:01:08.667Z,3.26
2023-03-06T00:03:36.444Z,3.17
2023-03-06T00:06:06.037Z,3.12
2023-03-06T00:08:34.030Z,3.12
2023-03-06T00:11:01.862Z,3.25
2023-03-06T00:13:30.673Z,3.19
2023-03-06T00:16:00.488Z,3.43
2023-03-06T00:18:28.536Z,3.16
2023-03-06T00:20:56.355Z,3.23
2023-03-06T00:23:25.746Z,3.18
2023-03-06T00:25:53.625Z,3.20
2023-03-06T00:28:21.415Z,3.08
2023-03-06T00:30:49.240Z,3.11
2023-03-06T00:33:17.399Z,3.38
2023-03-06T00:35:45.246Z,3.21
2023-03-06T00:38:13.668Z,3.12
2023-03-06T00:40:43.032Z,3.05
2023-03-06T00:43:10.926Z,3.06
2023-03-06T00:45:38.900Z,3.08
2023-03-06T00:48:09.514Z,2.98
2023-03-06T00:50:37.585Z,3.04
2023-03-06T00:53:05.476Z,2.98
2023-03-06T00:55:33.636Z,3.04
2023-03-06T00:58:03.008Z,2.88
2023-03-06T01:00:30.879Z,2.74
2023-03-06T01:02:58.866Z,2.80
2023-03-06T01:05:26.749Z,2.70
2023-03-06T01:07:54.771Z,2.80
2023-03-06T01:10:22.872Z,2.75
2023-03-06T01:12:50.659Z,2.83
2023-03-06T01:15:21.724Z,2.79
2023-03-06T01:17:52.842Z,2.77
2023-03-06T01:20:21.381Z,2.48
2023-03-06T01:22:49.256Z,2.61
2023-03-06T01:25:17.028Z,2.63
2023-03-06T01:27:44.788Z,2.58
2023-03-06T01:30:13.926Z,2.35
2023-03-06T01:32:43.444Z,2.06
2023-03-06T01:35:12.212Z,2.62
2023-03-06T01:37:40.596Z,2.54
2023-03-06T01:40:12.105Z,2.59
2023-03-06T01:42:40.033Z,2.62
2023-03-06T01:45:46.599Z,2.56
2023-03-06T01:48:16.132Z,2.72
2023-03-06T01:50:44.343Z,2.59
2023-03-06T01:53:13.996Z,2.70
2023-03-06T01:55:42.126Z,2.77
2023-03-06T01:58:13.903Z,2.77
2023-03-06T02:00:41.762Z,2.34
2023-03-06T02:03:13.449Z,2.58
2023-03-06T02:05:44.718Z,2.68
2023-03-06T02:08:15.904Z,2.66
2023-03-06T02:10:44.916Z,2.55
2023-03-06T02:13:12.650Z,2.67
2023-03-06T02:15:40.496Z,2.62
2023-03-06T02:18:08.501Z,2.58
2023-03-06T02:20:40.962Z,2.70
2023-03-06T02:23:15.884Z,2.29
2023-03-06T02:25:48.038Z,2.68
2023-03-06T02:28:18.530Z,2.94
2023-03-06T02:30:48.783Z,2.79
2023-03-06T02:33:18.276Z,2.69
2023-03-06T02:35:51.266Z,2.72
2023-03-06T02:38:22.034Z,3.05
2023-03-06T02:40:52.869Z,2.89
2023-03-06T02:43:25.455Z,2.82
2023-03-06T02:45:53.458Z,2.77
2023-03-06T02:48:22.083Z,2.69
2023-03-06T02:50:50.313Z,1.95
2023-03-06T02:53:20.338Z,2.82
2023-03-06T02:55:48.735Z,2.77
2023-03-06T02:58:20.580Z,2.74
2023-03-06T03:00:49.789Z,3.09
2023-03-06T03:03:18.537Z,2.73
2023-03-06T03:05:47.048Z,2.92
2023-03-06T03:08:24.706Z,2.76
2023-03-06T03:10:57.471Z,2.78
2023-03-06T03:13:28.525Z,1.82
2023-03-06T03:16:01.100Z,2.55
2023-03-06T03:18:29.382Z,2.98
2023-03-06T03:20:57.395Z,2.88
2023-03-06T03:23:25.676Z,2.96
2023-03-06T03:25:53.994Z,2.96
2023-03-06T03:28:22.303Z,2.99
2023-03-06T03:30:51.817Z,2.86
2023-03-06T03:33:19.975Z,2.92
2023-03-06T03:35:47.858Z,2.96
2023-03-06T03:38:17.213Z,2.90
2023-03-06T03:40:44.984Z,2.73
2023-03-06T03:43:13.154Z,2.69
2023-03-06T03:45:41.315Z,2.83
2023-03-06T03:48:10.506Z,2.75
2023-03-06T03:50:40.275Z,2.84
2023-03-06T03:53:08.419Z,2.84
2023-03-06T03:55:36.621Z,2.89
2023-03-06T03:58:05.578Z,2.83
2023-03-06T04:00:33.774Z,2.83
2023-03-06T04:03:11.817Z,2.93
2023-03-06T04:05:43.401Z,2.49
2023-03-06T04:08:14.204Z,2.71
2023-03-06T04:10:44.958Z,2.84
2023-03-06T04:13:15.441Z,2.84
2023-03-06T04:15:46.494Z,2.88
2023-03-06T04:18:16.570Z,2.76
2023-03-06T04:20:45.770Z,2.59
2023-03-06T04:23:14.425Z,2.63
2023-03-06T04:25:42.920Z,2.74
2023-03-06T04:28:13.358Z,2.65
2023-03-06T04:30:41.378Z,2.47
2023-03-06T04:33:10.398Z,2.05
2023-03-06T04:35:40.167Z,2.29
2023-03-06T04:38:14.186Z,2.37
2023-03-06T04:40:44.810Z,2.06
2023-03-06T04:43:13.063Z,2.28
2023-03-06T04:45:40.876Z,2.26
2023-03-06T04:48:09.092Z,2.09
2023-03-06T04:50:38.117Z,2.32
2023-03-06T04:53:08.605Z,2.27
2023-03-06T04:55:36.492Z,2.23
2023-03-06T04:58:04.477Z,2.18
2023-03-06T05:00:32.548Z,2.25
2023-03-06T05:03:01.736Z,2.21
2023-03-06T05:05:29.843Z,2.14
2023-03-06T05:07:57.992Z,2.48
2023-03-06T05:10:27.416Z,2.52
2023-03-06T05:12:55.187Z,2.44
2023-03-06T05:15:23.194Z,2.56
2023-03-06T05:17:51.162Z,2.69
2023-03-06T05:20:19.282Z,2.70
2023-03-06T05:22:47.361Z,2.57
2023-03-06T05:25:15.358Z,2.63
2023-03-06T05:27:44.569Z,2.67
2023-03-06T05:30:14.912Z,2.82
2023-03-06T05:32:42.921Z,2.22
2023-03-06T05:35:18.068Z,2.86
2023-03-06T05:37:45.894Z,2.87
2023-03-06T05:40:14.624Z,2.86
2023-03-06T05:42:43.959Z,2.84
2023-03-06T05:45:12.914Z,2.86
2023-03-06T05:47:40.809Z,2.72
2023-03-06T05:50:10.451Z,2.62
2023-03-06T05:52:39.526Z,2.65
2023-03-06T05:55:09.236Z,2.69
2023-03-06T05:57:36.996Z,2.62
2023-03-06T06:00:07.997Z,2.45
2023-03-06T06:02:40.492Z,2.82
2023-03-06T06:05:11.322Z,2.68
2023-03-06T06:07:40.900Z,2.77
2023-03-06T06:10:10.232Z,2.80
2023-03-06T06:12:38.281Z,2.07
2023-03-06T06:15:08.700Z,2.83
2023-03-06T06:17:36.572Z,2.81
2023-03-06T06:20:05.183Z,2.79
2023-03-06T06:22:32.939Z,2.92
2023-03-06T06:25:00.708Z,3.10
2023-03-06T06:27:28.539Z,3.06
2023-03-06T06:29:56.387Z,2.92
2023-03-06T06:32:25.702Z,2.92
2023-03-06T06:34:53.563Z,2.85
2023-03-06T06:37:21.328Z,3.06
2023-03-06T06:39:49.250Z,3.10
2023-03-06T06:42:38.890Z,2.97
2023-03-06T06:45:06.157Z,2.91
2023-03-06T06:47:38.577Z,2.87
2023-03-06T06:50:07.725Z,2.67
2023-03-06T06:52:35.642Z,2.78
2023-03-06T06:55:03.704Z,2.83
2023-03-06T06:57:31.940Z,2.87
2023-03-06T06:59:59.875Z,2.92
2023-03-06T07:02:27.771Z,3.00
2023-03-06T07:05:04.146Z,3.04
2023-03-06T07:07:35.429Z,2.95
2023-03-06T07:10:03.632Z,3.12
2023-03-06T07:12:32.909Z,2.88
2023-03-06T07:15:00.715Z,2.85
2023-03-06T07:17:28.558Z,2.44
2023-03-06T07:19:57.874Z,2.84
2023-03-06T07:22:25.683Z,2.87
2023-03-06T07:24:53.480Z,3.04
2023-03-06T07:27:23.792Z,3.08
2023-03-06T07:29:51.766Z,3.18
2023-03-06T07:32:20.705Z,3.25
2023-03-06T07:34:48.920Z,3.18
2023-03-06T07:37:18.305Z,3.32
2023-03-06T07:39:46.198Z,3.36
2023-03-06T07:42:15.153Z,3.04
2023-03-06T07:44:53.966Z,3.27
2023-03-06T07:47:21.796Z,2.69
2023-03-06T07:49:49.529Z,3.25
2023-03-06T07:52:18.889Z,3.33
2023-03-06T07:54:46.708Z,2.49
2023-03-06T07:57:14.908Z,3.15
2023-03-06T07:59:42.943Z,3.60
2023-03-06T08:02:11.899Z,3.56
2023-03-06T08:04:40.225Z,3.46
2023-03-06T08:07:08.071Z,3.38
2023-03-06T08:09:37.552Z,3.04
2023-03-06T08:12:05.510Z,3.26
2023-03-06T08:14:35.583Z,3.18
2023-03-06T08:17:03.710Z,3.32
2023-03-06T08:19:31.538Z,3.40
2023-03-06T08:21:59.536Z,3.50
2023-03-06T08:24:27.439Z,3.28
2023-03-06T08:26:56.786Z,3.53
2023-03-06T08:29:24.683Z,3.45
2023-03-06T08:31:52.568Z,3.46
2023-03-06T08:34:24.189Z,3.39
2023-03-06T08:36:52.589Z,3.34
2023-03-06T08:39:21.190Z,3.64
2023-03-06T08:41:48.957Z,3.60
2023-03-06T08:44:18.227Z,3.72
2023-03-06T08:46:46.082Z,3.74
2023-03-06T08:49:14.425Z,3.73
2023-03-06T08:51:42.457Z,3.69
2023-03-06T08:54:13.211Z,3.49
2023-03-06T08:56:41.208Z,3.30
2023-03-06T08:59:10.488Z,3.92
2023-03-06T09:01:40.904Z,3.68
2023-03-06T09:04:11.752Z,3.74
2023-03-06T09:06:43.375Z,4.08
2023-03-06T09:09:12.042Z,4.22
2023-03-06T09:11:40.451Z,3.99
2023-03-06T09:14:08.571Z,3.85
2023-03-06T09:16:36.682Z,3.97
2023-03-06T09:19:06.123Z,3.93
2023-03-06T09:21:34.028Z,3.48
2023-03-06T09:24:01.852Z,3.84
2023-03-06T09:26:43.478Z,3.97
2023-03-06T09:29:13.418Z,3.88
2023-03-06T09:31:41.576Z,3.85
2023-03-06T09:34:10.720Z,3.90
2023-03-06T09:36:54.907Z,4.01
2023-03-06T09:39:24.918Z,3.84
2023-03-06T09:41:53.654Z,3.85
2023-03-06T09:44:23.636Z,3.87
2023-03-06T09:47:14.538Z,3.56
2023-03-06T09:50:01.729Z,3.61
2023-03-06T09:52:38.526Z,3.62
2023-03-06T09:55:13.402Z,3.74
2023-03-06T09:57:46.234Z,3.68
2023-03-06T10:00:18.051Z,3.55
2023-03-06T10:02:49.090Z,3.50
2023-03-06T10:05:22.693Z,3.71
2023-03-06T10:07:55.103Z,3.35
2023-03-06T10:10:26.115Z,3.42
2023-03-06T10:13:01.480Z,3.44
2023-03-06T10:15:33.909Z,3.47
2023-03-06T10:18:03.129Z,3.35
2023-03-06T10:20:37.995Z,3.58
2023-03-06T10:23:30.051Z,3.61
2023-03-06T10:26:01.642Z,4.08
2023-03-06T10:28:32.767Z,4.16
2023-03-06T10:31:06.961Z,4.41
2023-03-06T10:33:50.836Z,4.03
2023-03-06T10:36:22.511Z,4.29
2023-03-06T10:38:50.642Z,4.19
2023-03-06T10:41:24.933Z,3.93
2023-03-06T10:44:35.488Z,4.22
2023-03-06T10:47:27.478Z,3.91
2023-03-06T10:50:01.005Z,3.65
2023-03-06T10:52:32.876Z,3.81
2023-03-06T10:55:23.789Z,3.56
2023-03-06T10:57:51.941Z,3.65
2023-03-06T11:00:36.004Z,3.52
2023-03-06T11:03:18.041Z,3.50
2023-03-06T11:05:59.237Z,3.57
2023-03-06T11:08:29.257Z,3.49
2023-03-06T11:11:02.315Z,3.58
2023-03-06T11:13:32.238Z,3.57
2023-03-06T11:16:03.962Z,3.77
2023-03-06T11:18:41.165Z,3.74
2023-03-06T11:21:30.387Z,3.36
2023-03-06T11:24:05.344Z,3.57
2023-03-06T11:26:39.284Z,3.61
2023-03-06T11:29:16.955Z,3.54
2023-03-06T11:31:51.548Z,3.37
2023-03-06T11:34:25.568Z,3.23
2023-03-06T11:36:57.980Z,3.25
2023-03-06T11:39:36.087Z,3.50
2023-03-06T11:42:10.950Z,3.76
2023-03-06T11:44:52.921Z,3.81
2023-03-06T11:47:24.597Z,3.87
2023-03-06T11:50:01.885Z,4.00
2023-03-06T11:52:43.067Z,4.03
2023-03-06T11:55:18.313Z,4.26
2023-03-06T11:57:52.334Z,4.66
2023-03-06T12:00:30.567Z,4.79
2023-03-06T12:03:30.283Z,4.96
2023-03-06T12:06:04.126Z,4.98
2023-03-06T12:08:51.902Z,4.95
2023-03-06T12:11:25.455Z,5.06
2023-03-06T12:14:08.063Z,4.80
2023-03-06T12:16:58.592Z,5.25
2023-03-06T12:19:39.038Z,5.31
2023-03-06T12:22:22.493Z,4.92
2023-03-06T12:25:07.965Z,5.25
2023-03-06T12:27:46.075Z,4.94
2023-03-06T12:30:30.092Z,4.88
2023-03-06T12:33:06.304Z,4.85
2023-03-06T12:35:51.656Z,4.81
2023-03-06T12:38:49.995Z,4.74
2023-03-06T12:41:28.229Z,4.90
2023-03-06T12:44:18.612Z,4.51
2023-03-06T12:46:50.577Z,4.88
2023-03-06T12:49:31.957Z,4.78
2023-03-06T12:52:02.256Z,5.01
2023-03-06T12:54:34.741Z,3.80
2023-03-06T12:57:02.835Z,4.78
2023-03-06T12:59:42.972Z,4.51
2023-03-06T13:02:44.323Z,4.61
2023-03-06T13:05:30.913Z,4.71
2023-03-06T13:08:14.229Z,4.56
2023-03-06T13:10:44.884Z,4.55
2023-03-06T13:13:32.819Z,4.15
2023-03-06T13:16:14.786Z,3.81
2023-03-06T13:18:55.496Z,3.66
2023-03-06T13:21:46.445Z,3.93
2023-03-06T13:24:21.157Z,4.13
2023-03-06T13:27:01.322Z,4.17
2023-03-06T13:30:06.621Z,4.04
2023-03-06T13:32:37.211Z,4.00
2023-03-06T13:35:52.881Z,4.11
2023-03-06T13:38:59.774Z,4.01
2023-03-06T13:41:37.650Z,4.01
2023-03-06T13:44:49.575Z,4.10
2023-03-06T13:48:01.374Z,4.08
2023-03-06T13:50:37.994Z,3.84
2023-03-06T13:53:30.924Z,4.01
2023-03-06T13:56:11.084Z,4.07
2023-03-06T13:58:53.217Z,4.04
2023-03-06T14:01:37.002Z,4.33
2023-03-06T14:04:34.607Z,4.52
2023-03-06T14:07:19.150Z,4.58
2023-03-06T14:09:48.826Z,4.46
2023-03-06T14:12:23.628Z,3.03
2023-03-06T14:14:56.988Z,4.41
2023-03-06T14:17:29.737Z,4.49
2023-03-06T14:20:01.861Z,4.58
2023-03-06T14:22:29.965Z,4.37
2023-03-06T14:25:01.959Z,4.57
2023-03-06T14:27:42.899Z,3.75
2023-03-06T14:30:15.972Z,3.91
2023-03-06T14:32:44.638Z,4.39
2023-03-06T14:35:29.552Z,4.52
2023-03-06T14:38:04.939Z,4.14
2023-03-06T14:40:35.995Z,3.88
2023-03-06T14:43:24.607Z,4.57
2023-03-06T14:45:57.918Z,4.42
2023-03-06T14:48:28.045Z,4.44
2023-03-06T14:50:58.634Z,4.46
2023-03-06T14:53:29.226Z,4.29
2023-03-06T14:56:00.297Z,4.73
2023-03-06T14:58:32.649Z,4.54
2023-03-06T15:01:06.470Z,4.69
2023-03-06T15:03:45.226Z,4.81
2023-03-06T15:06:18.262Z,4.78
2023-03-06T15:08:48.663Z,4.82
2023-03-06T15:11:16.689Z,5.01
2023-03-06T15:14:00.784Z,4.80
2023-03-06T15:16:30.370Z,5.07
2023-03-06T15:19:00.191Z,4.80
2023-03-06T15:21:38.910Z,4.71
2023-03-06T15:24:34.644Z,4.81
2023-03-06T15:27:04.548Z,4.63
2023-03-06T15:29:33.102Z,4.13
2023-03-06T15:32:32.329Z,4.29
2023-03-06T15:35:32.761Z,4.72
2023-03-06T15:38:03.649Z,4.39
2023-03-06T15:40:32.903Z,4.84
2023-03-06T15:43:01.039Z,3.48
2023-03-06T15:45:31.894Z,4.96
2023-03-06T15:47:59.732Z,4.89
2023-03-06T15:50:30.259Z,4.73
2023-03-06T15:52:58.384Z,4.78
2023-03-06T15:55:27.850Z,4.90
2023-03-06T15:57:59.547Z,5.02
2023-03-06T16:00:29.489Z,4.78
2023-03-06T16:02:58.325Z,4.83
2023-03-06T16:05:29.429Z,4.78
2023-03-06T16:07:58.974Z,4.80
2023-03-06T16:10:30.793Z,4.86
2023-03-06T16:13:02.980Z,4.86
2023-03-06T16:15:33.118Z,4.37
2023-03-06T16:18:01.284Z,4.71
2023-03-06T16:20:30.380Z,4.52
2023-03-06T16:22:58.287Z,4.80
2023-03-06T16:25:29.407Z,4.62
2023-03-06T16:27:59.486Z,4.70
2023-03-06T16:30:29.387Z,4.50
2023-03-06T16:32:57.876Z,4.54
2023-03-06T16:35:26.735Z,4.44
2023-03-06T16:37:54.979Z,4.37
2023-03-06T16:40:25.333Z,4.36
2023-03-06T16:42:55.271Z,3.77
2023-03-06T16:45:24.996Z,4.21
2023-03-06T16:47:53.133Z,4.18
2023-03-06T16:50:25.447Z,3.65
2023-03-06T16:52:54.819Z,4.09
2023-03-06T16:55:23.268Z,4.07
2023-03-06T16:57:51.503Z,4.01
2023-03-06T17:00:22.525Z,4.08
2023-03-06T17:02:50.903Z,3.87
2023-03-06T17:05:19.893Z,3.84
2023-03-06T17:07:47.910Z,3.83
2023-03-06T17:10:17.754Z,3.16
2023-03-06T17:12:45.855Z,3.70
2023-03-06T17:15:13.741Z,3.57
2023-03-06T17:17:43.033Z,3.59
2023-03-06T17:20:13.724Z,3.59
2023-03-06T17:22:42.027Z,3.54
2023-03-06T17:25:10.730Z,3.47
2023-03-06T17:27:39.112Z,3.19
2023-03-06T17:30:08.377Z,3.25
2023-03-06T17:32:36.350Z,3.13
2023-03-06T17:35:06.596Z,3.14
2023-03-06T17:37:34.342Z,3.05
2023-03-06T17:40:02.267Z,3.01
2023-03-06T17:42:30.087Z,2.89
2023-03-06T17:44:57.933Z,2.99
2023-03-06T17:47:25.808Z,2.97
2023-03-06T17:49:53.987Z,2.77
2023-03-06T17:52:23.313Z,2.90
2023-03-06T17:54:51.304Z,2.88
2023-03-06T17:57:19.084Z,2.72
2023-03-06T17:59:48.627Z,2.70
2023-03-06T18:02:16.609Z,2.84
2023-03-06T18:04:44.593Z,2.84
2023-03-06T18:07:12.412Z,2.77
2023-03-06T18:09:43.865Z,2.70
2023-03-06T18:12:12.374Z,2.56
2023-03-06T18:14:40.232Z,2.64
2023-03-06T18:17:08.119Z,2.23
2023-03-06T18:19:36.219Z,2.55
2023-03-06T18:22:03.952Z,2.55
2023-03-06T18:24:31.744Z,2.52
2023-03-06T18:27:01.197Z,2.27
2023-03-06T18:29:29.084Z,2.49
2023-03-06T18:31:59.128Z,2.44
2023-03-06T18:34:27.308Z,2.06
2023-03-06T18:36:55.186Z,2.19
2023-03-06T18:39:23.106Z,2.28
2023-03-06T18:41:51.740Z,2.42
2023-03-06T18:44:21.164Z,2.41
2023-03-06T18:46:49.102Z,1.92
2023-03-06T18:49:17.188Z,2.00
2023-03-06T18:51:45.011Z,1.86
2023-03-06T18:54:12.984Z,2.22
2023-03-06T18:56:44.094Z,2.15
2023-03-06T18:59:16.423Z,2.08
2023-03-06T19:01:47.557Z,2.04
2023-03-06T19:04:15.500Z,2.00
2023-03-06T19:06:43.489Z,1.86
2023-03-06T19:09:11.697Z,1.99
2023-03-06T19:11:39.544Z,2.02
2023-03-06T19:14:07.907Z,1.99
2023-03-06T19:16:35.964Z,2.03
2023-03-06T19:19:05.301Z,1.95
2023-03-06T19:21:33.459Z,1.84
2023-03-06T19:24:02.960Z,2.01
2023-03-06T19:26:31.377Z,1.79
2023-03-06T19:28:59.668Z,1.79
2023-03-06T19:31:29.396Z,1.10
2023-03-06T19:33:58.075Z,2.00
2023-03-06T19:36:33.455Z,2.00
2023-03-06T19:39:04.693Z,1.96
2023-03-06T19:41:32.776Z,2.21
2023-03-06T19:44:03.356Z,2.25
2023-03-06T19:46:31.706Z,2.24
2023-03-06T19:49:01.035Z,2.17
2023-03-06T19:51:30.932Z,2.20
2023-03-06T19:53:58.785Z,2.15
2023-03-06T19:56:29.057Z,0.81
2023-03-06T19:58:57.552Z,2.01
2023-03-06T20:01:28.006Z,2.26
2023-03-06T20:03:58.666Z,1.93
2023-03-06T20:06:28.933Z,2.10
2023-03-06T20:08:58.194Z,2.33
2023-03-06T20:11:29.801Z,2.43
2023-03-06T20:13:59.642Z,2.24
2023-03-06T20:16:28.918Z,2.14
2023-03-06T20:18:58.930Z,1.43
2023-03-06T20:21:27.415Z,2.08
2023-03-06T20:23:56.984Z,2.39
2023-03-06T20:26:28.260Z,2.30
2023-03-06T20:28:56.864Z,2.58
2023-03-06T20:31:26.991Z,2.48
2023-03-06T20:33:55.142Z,2.50
2023-03-06T20:36:27.672Z,2.65
2023-03-06T20:38:55.630Z,2.43
2023-03-06T20:41:27.569Z,2.42
2023-03-06T20:43:55.789Z,2.43
2023-03-06T20:46:24.748Z,2.37
2023-03-06T20:48:54.109Z,2.16
2023-03-06T20:51:23.985Z,2.57
2023-03-06T20:53:54.242Z,1.96
2023-03-06T20:56:22.580Z,2.62
2023-03-06T20:58:52.384Z,1.82
2023-03-06T21:01:21.212Z,2.53
2023-03-06T21:03:49.674Z,2.48
2023-03-06T21:06:18.183Z,2.58
2023-03-06T21:08:46.232Z,2.19
2023-03-06T21:11:14.421Z,2.49
2023-03-06T21:13:42.423Z,2.49
2023-03-06T21:16:14.321Z,2.43
2023-03-06T21:18:42.528Z,1.54
2023-03-06T21:21:12.561Z,1.19
2023-03-06T21:23:40.713Z,2.58
2023-03-06T21:26:08.650Z,2.55
2023-03-06T21:28:36.700Z,2.62
2023-03-06T21:31:08.448Z,2.49
2023-03-06T21:33:38.487Z,2.26
2023-03-06T21:36:07.693Z,2.28
2023-03-06T21:38:36.680Z,2.39
2023-03-06T21:41:08.994Z,2.25
2023-03-06T21:43:36.884Z,2.43
2023-03-06T21:46:04.877Z,2.52
2023-03-06T21:48:33.170Z,2.27
2023-03-06T21:51:10.868Z,2.51
2023-03-06T21:53:40.965Z,2.40
2023-03-06T21:56:09.793Z,2.40
2023-03-06T21:58:38.383Z,2.33
2023-03-06T22:01:10.977Z,2.53
2023-03-06T22:03:39.529Z,1.70
2023-03-06T22:06:13.935Z,2.39
2023-03-06T22:08:42.578Z,2.46
2023-03-06T22:11:12.501Z,2.20
2023-03-06T22:13:41.194Z,2.45
2023-03-06T22:16:09.756Z,2.49
2023-03-06T22:18:38.173Z,2.59
2023-03-06T22:21:09.751Z,2.64
2023-03-06T22:23:40.286Z,2.49
2023-03-06T22:26:11.302Z,2.43
2023-03-06T22:28:39.482Z,2.54
2023-03-06T22:31:08.953Z,2.65
2023-03-06T22:33:37.025Z,2.64
2023-03-06T22:36:07.679Z,2.66
2023-03-06T22:38:36.791Z,2.58
2023-03-06T22:41:06.925Z,2.43
2023-03-06T22:43:35.097Z,2.54
2023-03-06T22:46:03.961Z,2.39
2023-03-06T22:48:32.392Z,2.52
2023-03-06T22:51:04.499Z,2.49
2023-03-06T22:53:32.875Z,2.50
2023-03-06T22:56:01.270Z,2.47
2023-03-06T22:58:34.410Z,2.52
2023-03-06T23:01:08.488Z,2.41
2023-03-06T23:03:37.582Z,2.47
2023-03-06T23:06:10.604Z,2.40
2023-03-06T23:08:39.324Z,2.32
2023-03-06T23:11:09.943Z,1.93
2023-03-06T23:13:58.714Z,1.99
2023-03-06T23:16:45.239Z,2.35
2023-03-06T23:19:31.927Z,1.62
2023-03-06T23:22:18.397Z,2.18
2023-03-06T23:25:05.971Z,2.28
2023-03-06T23:27:33.793Z,2.23
2023-03-06T23:30:03.600Z,1.63
2023-03-06T23:32:32.897Z,2.14
2023-03-06T23:35:01.572Z,2.16
2023-03-06T23:37:29.602Z,2.18
2023-03-06T23:39:57.707Z,2.25
2023-03-06T23:42:25.563Z,1.93
2023-03-06T23:44:53.337Z,2.36
2023-03-06T23:47:22.610Z,2.29
2023-03-06T23:49:50.507Z,2.16
2023-03-06T23:52:18.691Z,2.31
2023-03-06T23:54:49.670Z,2.29
2023-03-06T23:57:17.578Z,2.28
2023-03-06T23:59:45.545Z,2.09
